Hauptseite
METAR-TAF:

METAR-TAF

Flughäfen :

Flughafen Larnaka

Larnaka, Zypern

Breite: 34-53N, Länge: 033-38E, Höhe: 2 m

Beobachtung

Neuester Wetterbericht von vor 19 Minuten, um 18:30 UTC
Wind 5 kt aus Nordwest
Temperatur 14°C
Luftfeuchtigkeit 55%
Luftdruck 1021 hPa
Sichtweite 10 km oder mehr
Leicht bewölkt in der Höhe von 6000 ft

METAR: LCLK 161830Z 32005KT 9999 FEW060 14/05 Q1021 NOSIG

Zeit: 20:49 (18:49 UTC)

Prognose

Neuester Wetterbericht von vor 1 Stunde und 19 Minuten, um 17:30 UTC
Gültige Prognose vom 16 um 18 UTC bis 17 um 18 UTC
Wind 7 kt aus Nord/Nordwest
Sichtweite 10 km oder mehr
Leicht bewölkt in der Höhe von 2500 ft
Übergehend zu
vom 17 um 06 UTC bis 17 um 10 UTC
Wind 12 kt aus Ost

TAF: LCLK 161730Z 1618/1718 33007KT 9999 FEW025 BECMG 1706/1710 09012KT

Wetterbeobachtungen und Prognosen von mehr als 4000 Flughäfen (METAR und TAF Bericht).

Die verfügbaren Stationen werden durch gelbe und rote Markierungen auf der Karte dargestellt.

Führen Sie die Maus auf sie, um den Namen der Station zu sehen.

Darauf klicken, um die Beobachtung von Wetterbeobachtungen und Prognosen zu sehen.

Um die Karte zu ändern : klicken Sie auf den grünen Tasten mit einem schwarzen Kreuz Zum Vergrößern, auf den grünen Button mit einem Gedankenstrich zu verkleinern, oder auf die grünen Pfeile für benachbarte Karten.


METAR-TAF: